« Back
NWS Peachtree City, Ga » Text Product » CSG Terminal Aerodrome Forecast


Printer-friendly Version
Current Version              Previous Versions:   1  2  3  4  5  6  7  8  9  

Terminal Aerodrome Forecast

579
FTUS42 KFFC 271331 AAB
TAFCSG
TAF AMD
KCSG 271331Z 2714/2812 13006KT P6SM BKN004 BKN030
     FM271500 15006KT P6SM SCT030
     FM271800 17006KT P6SM VCSH BKN040
      TEMPO 2721/2724 3SM -TSRA BKN015CB
     FM280000 VRB03KT P6SM BKN040
     FM280500 VRB03KT P6SM SCT020 BKN080=



USA.gov is the U.S. government's official web portal to all federal, state and local government web resources and services.